Time;durP1;ratioP1;P1;durP2;ratioP2;P2;SDS_P1;SDS_P2;PMS_P1;PMS_P2;Temp;Humidity;BMP_temperature;BMP_pressure;BME280_temperature;BME280_humidity;BME280_pressure;Samples;Min_cycle;Max_cycle;Signal;HPM_P1;HPM_P2
2024/01/02 00:01:01;;;;;;;0.43;0.43;;;;;;;6.61;100.00;99709.91;10434757;28;20037;-73
2024/01/02 00:06:01;;;;;;;0.30;0.30;;;;;;;6.58;100.00;99691.47;10418414;28;20034;-72
2024/01/02 00:11:02;;;;;;;0.60;0.60;;;;;;;6.67;100.00;99655.28;10418461;28;20497;-73
2024/01/02 00:16:03;;;;;;;0.90;0.90;;;;;;;6.68;100.00;99635.41;10417642;28;20048;-73
2024/01/02 00:21:03;;;;;;;0.80;0.80;;;;;;;6.77;100.00;99627.16;10416061;28;20029;-73
2024/01/02 00:26:04;;;;;;;0.50;0.50;;;;;;;6.79;100.00;99598.19;10418705;28;20048;-74
2024/01/02 00:31:04;;;;;;;0.47;0.47;;;;;;;6.82;100.00;99574.38;10418247;28;20037;-73
2024/01/02 00:36:09;;;;;;;0.30;0.30;;;;;;;6.87;100.00;99563.84;10417707;28;20045;-72
2024/01/02 00:41:09;;;;;;;0.57;0.57;;;;;;;6.84;100.00;99547.28;10433233;28;20052;-73
2024/01/02 00:46:09;;;;;;;0.63;0.63;;;;;;;6.88;100.00;99519.72;10417124;28;20073;-73
2024/01/02 00:51:11;;;;;;;0.40;0.40;;;;;;;6.88;100.00;99481.25;10416044;28;20035;-74
2024/01/02 00:56:12;;;;;;;0.40;0.40;;;;;;;6.89;100.00;99464.91;10398699;28;20487;-72
2024/01/02 01:01:12;;;;;;;0.40;0.40;;;;;;;6.89;100.00;99453.28;10416674;28;20060;-77
2024/01/02 01:06:12;;;;;;;0.32;0.32;;;;;;;6.89;100.00;99445.22;10416559;28;20033;-72
2024/01/02 01:11:13;;;;;;;0.40;0.40;;;;;;;6.92;100.00;99409.81;10429812;28;20021;-73
2024/01/02 01:16:13;;;;;;;0.50;0.50;;;;;;;6.99;100.00;99402.56;10431858;28;20026;-73
2024/01/02 01:21:13;;;;;;;0.40;0.40;;;;;;;6.96;100.00;99365.31;10416136;28;20123;-73
2024/01/02 01:26:14;;;;;;;0.50;0.50;;;;;;;7.01;100.00;99348.53;10417353;28;20049;-72
2024/01/02 01:31:14;;;;;;;1.88;1.80;;;;;;;7.03;100.00;99325.75;10414777;28;20060;-78
2024/01/02 01:36:15;;;;;;;0.40;0.40;;;;;;;6.99;100.00;99309.19;10430021;28;20036;-72
2024/01/02 01:41:15;;;;;;;0.40;0.40;;;;;;;7.07;100.00;99283.91;10416336;28;20049;-72
2024/01/02 01:46:15;;;;;;;0.50;0.50;;;;;;;7.00;100.00;99266.97;10415622;28;20071;-73
2024/01/02 01:51:16;;;;;;;2.38;2.28;;;;;;;7.08;100.00;99266.69;10414907;28;20346;-72
2024/01/02 01:56:16;;;;;;;0.40;0.40;;;;;;;7.19;100.00;99238.28;10414986;28;20037;-72
2024/01/02 02:01:17;;;;;;;0.50;0.50;;;;;;;7.23;100.00;99217.97;10414703;28;20041;-76
2024/01/02 02:06:17;;;;;;;0.40;0.40;;;;;;;7.23;100.00;99215.28;10412472;28;20048;-72
2024/01/02 02:11:17;;;;;;;0.80;0.80;;;;;;;7.28;100.00;99179.63;10413549;28;20041;-73
2024/01/02 02:16:18;;;;;;;0.40;0.40;;;;;;;7.25;100.00;99156.66;10413562;28;20430;-75
2024/01/02 02:21:18;;;;;;;0.52;0.52;;;;;;;7.30;100.00;99164.06;10413300;28;20122;-73
2024/01/02 02:26:19;;;;;;;0.52;0.52;;;;;;;7.37;100.00;99125.28;10412378;28;20042;-73
2024/01/02 02:31:19;;;;;;;0.40;0.40;;;;;;;7.43;100.00;99093.94;10412631;28;20045;-78
2024/01/02 02:36:19;;;;;;;0.30;0.30;;;;;;;7.42;100.00;99103.88;10414428;28;20517;-73
2024/01/02 02:41:20;;;;;;;0.40;0.40;;;;;;;7.50;100.00;99083.94;10413786;28;20038;-73
2024/01/02 02:46:20;;;;;;;0.50;0.50;;;;;;;7.52;100.00;99065.69;10412690;28;20056;-74
2024/01/02 02:51:21;;;;;;;0.43;0.43;;;;;;;7.63;100.00;99064.97;10413412;28;20033;-74
2024/01/02 02:56:21;;;;;;;0.38;0.38;;;;;;;7.66;100.00;99037.56;10427466;28;20036;-73
2024/01/02 03:01:24;;;;;;;0.30;0.30;;;;;;;7.66;100.00;99036.75;10409944;28;20515;-76
2024/01/02 03:06:25;;;;;;;0.50;0.50;;;;;;;7.74;100.00;99024.84;10411633;28;20038;-71
2024/01/02 03:11:25;;;;;;;0.30;0.30;;;;;;;7.79;100.00;99001.56;10411687;28;20037;-71
2024/01/02 03:16:26;;;;;;;0.32;0.32;;;;;;;7.89;100.00;99001.84;10411449;28;20029;-71
2024/01/02 03:21:28;;;;;;;0.40;0.40;;;;;;;8.01;100.00;98992.97;10411227;28;20394;-70
2024/01/02 03:26:29;;;;;;;0.30;0.30;;;;;;;8.16;100.00;98966.44;10412238;28;20045;-70
2024/01/02 03:31:29;;;;;;;0.40;0.40;;;;;;;8.24;100.00;98965.31;10412177;28;20053;-70
2024/01/02 03:36:29;;;;;;;0.50;0.50;;;;;;;8.38;100.00;98982.97;10416807;28;20380;-70
2024/01/02 03:41:30;;;;;;;0.40;0.40;;;;;;;8.54;100.00;98981.47;10418305;28;20033;-71
2024/01/02 03:46:30;;;;;;;0.80;0.80;;;;;;;8.64;100.00;98957.44;10418272;28;20425;-70
2024/01/02 03:51:30;;;;;;;0.50;0.50;;;;;;;8.73;100.00;98949.84;10421544;28;20044;-71
2024/01/02 03:56:31;;;;;;;0.40;0.40;;;;;;;8.80;100.00;98932.47;10417439;28;20576;-70
2024/01/02 04:01:31;;;;;;;2.78;2.58;;;;;;;8.84;100.00;98912.06;10417242;28;20033;-71
2024/01/02 04:06:32;;;;;;;0.50;0.50;;;;;;;8.97;100.00;98946.09;10417222;28;20077;-70
2024/01/02 04:11:32;;;;;;;0.35;0.35;;;;;;;9.02;100.00;98930.00;10398671;28;20112;-70
2024/01/02 04:16:33;;;;;;;0.50;0.50;;;;;;;9.11;100.00;98933.19;10417798;28;20057;-70
2024/01/02 04:21:33;;;;;;;0.30;0.30;;;;;;;9.16;100.00;98925.19;10423064;28;20029;-69
2024/01/02 04:26:34;;;;;;;0.40;0.40;;;;;;;9.24;100.00;98915.91;10414970;28;20041;-70
2024/01/02 04:31:34;;;;;;;0.40;0.40;;;;;;;9.30;100.00;98940.06;10416996;28;20346;-70
2024/01/02 04:36:34;;;;;;;0.40;0.40;;;;;;;9.42;100.00;98923.84;10415765;28;20030;-70
2024/01/02 04:41:35;;;;;;;0.40;0.40;;;;;;;9.54;100.00;98924.66;10415551;28;20033;-71
2024/01/02 04:46:35;;;;;;;0.32;0.32;;;;;;;9.65;100.00;98930.25;10430731;28;20075;-70
2024/01/02 04:51:36;;;;;;;0.50;0.50;;;;;;;9.78;100.00;98930.78;10416242;28;20034;-70
2024/01/02 04:56:36;;;;;;;2.05;2.05;;;;;;;9.92;100.00;98906.16;10416350;28;20033;-70
2024/01/02 05:01:37;;;;;;;8.70;3.33;;;;;;;10.09;100.00;98928.69;10414969;28;20029;-70
2024/01/02 05:06:37;;;;;;;15.20;5.03;;;;;;;10.22;100.00;98936.47;10414726;28;20060;-70
2024/01/02 05:11:38;;;;;;;27.95;6.85;;;;;;;10.37;100.00;98933.25;10415197;28;20036;-70
2024/01/02 05:16:38;;;;;;;15.60;6.63;;;;;;;10.52;100.00;98954.34;10413648;28;20076;-71
2024/01/02 05:21:39;;;;;;;32.40;8.68;;;;;;;10.60;100.00;98958.53;10414812;28;20029;-70
2024/01/02 05:26:39;;;;;;;18.05;6.47;;;;;;;10.62;100.00;98978.03;10422071;28;20107;-70
2024/01/02 05:31:39;;;;;;;19.67;7.38;;;;;;;10.68;100.00;98966.25;10417513;28;20029;-70
2024/01/02 05:36:40;;;;;;;31.75;9.63;;;;;;;10.70;100.00;98985.78;10415316;28;20029;-69
2024/01/02 05:41:40;;;;;;;28.50;9.27;;;;;;;10.74;100.00;98986.91;10412501;28;20408;-70
2024/01/02 05:46:41;;;;;;;30.38;8.00;;;;;;;10.74;100.00;98984.22;10414165;28;20060;-70
2024/01/02 05:51:41;;;;;;;31.52;8.30;;;;;;;10.79;100.00;98994.31;10430053;28;20041;-71
2024/01/02 05:56:43;;;;;;;25.65;8.63;;;;;;;10.71;100.00;98995.53;10415264;28;20059;-71
2024/01/02 06:01:43;;;;;;;27.00;8.60;;;;;;;10.66;100.00;99017.13;10414981;28;20037;-70
2024/01/02 06:06:43;;;;;;;26.92;8.98;;;;;;;10.71;100.00;99028.00;10411958;28;20475;-70
2024/01/02 06:11:44;;;;;;;31.45;7.10;;;;;;;10.65;100.00;99037.91;10412712;28;20154;-70
2024/01/02 06:16:44;;;;;;;39.33;9.68;;;;;;;10.65;100.00;99039.81;10413007;28;20037;-70
2024/01/02 06:21:45;;;;;;;27.75;9.73;;;;;;;10.59;100.00;99029.97;10412024;28;20033;-69
2024/01/02 06:26:45;;;;;;;24.45;9.05;;;;;;;10.60;100.00;99043.25;10413083;28;20484;-69
2024/01/02 06:31:45;;;;;;;32.45;11.63;;;;;;;10.63;100.00;99033.84;10427498;28;20037;-69
2024/01/02 06:36:46;;;;;;;44.72;10.32;;;;;;;10.57;100.00;99053.75;10411848;28;20033;-70
2024/01/02 06:41:46;;;;;;;40.50;10.45;;;;;;;10.50;100.00;99055.78;10415559;28;20101;-70
2024/01/02 06:46:47;;;;;;;30.92;9.15;;;;;;;10.43;100.00;99058.63;10411297;28;20061;-71
2024/01/02 06:51:47;;;;;;;29.23;12.02;;;;;;;10.43;100.00;99073.00;10413254;28;20030;-70
2024/01/02 06:56:47;;;;;;;41.15;11.77;;;;;;;10.47;100.00;99082.28;10412272;28;20380;-69
2024/01/02 07:01:48;;;;;;;40.85;12.55;;;;;;;10.56;100.00;99079.16;10411125;28;20039;-69
2024/01/02 07:06:48;;;;;;;26.75;11.35;;;;;;;10.52;100.00;99068.00;10413469;28;20025;-69
2024/01/02 07:11:49;;;;;;;38.85;12.75;;;;;;;10.53;100.00;99091.31;10419965;28;20167;-71
2024/01/02 07:16:49;;;;;;;37.40;12.32;;;;;;;10.53;100.00;99098.59;10420228;28;20037;-70
2024/01/02 07:21:49;;;;;;;65.10;11.90;;;;;;;10.54;100.00;99122.72;10418863;28;20113;-70
2024/01/02 07:26:50;;;;;;;51.28;13.05;;;;;;;10.57;100.00;99118.72;10433996;28;20049;-69
2024/01/02 07:31:50;;;;;;;34.38;9.23;;;;;;;10.58;100.00;99131.19;10417033;28;20029;-69
2024/01/02 07:36:51;;;;;;;34.88;9.13;;;;;;;10.56;100.00;99126.03;10418252;28;20037;-70
2024/01/02 07:41:51;;;;;;;49.17;12.48;;;;;;;10.56;100.00;99139.56;10418146;28;20327;-69
2024/01/02 07:46:51;;;;;;;49.20;11.27;;;;;;;10.59;100.00;99130.09;10417277;28;20062;-69
2024/01/02 07:51:52;;;;;;;40.55;11.07;;;;;;;10.61;100.00;99120.69;10417249;28;20044;-69
2024/01/02 07:56:52;;;;;;;43.78;11.50;;;;;;;10.60;100.00;99124.47;10417513;28;20476;-69
2024/01/02 08:01:53;;;;;;;34.22;11.07;;;;;;;10.61;100.00;99122.56;10417326;28;20085;-69
2024/01/02 08:06:53;;;;;;;43.22;10.60;;;;;;;10.59;100.00;99101.19;10416728;28;20350;-69
2024/01/02 08:11:54;;;;;;;27.27;7.75;;;;;;;10.60;100.00;99089.28;10416148;28;20067;-69
2024/01/02 08:16:54;;;;;;;30.25;8.35;;;;;;;10.60;100.00;99093.88;10416603;28;20471;-68
2024/01/02 08:21:54;;;;;;;28.48;7.45;;;;;;;10.62;100.00;99106.06;10416510;28;20041;-69
2024/01/02 08:26:55;;;;;;;30.27;8.98;;;;;;;10.69;100.00;99104.06;10415835;28;20105;-69
2024/01/02 08:31:55;;;;;;;24.42;9.90;;;;;;;10.76;100.00;99094.97;10415939;28;20041;-69
2024/01/02 08:36:56;;;;;;;24.10;6.28;;;;;;;10.79;100.00;99097.22;10431912;28;20044;-69
2024/01/02 08:41:56;;;;;;;26.63;8.60;;;;;;;10.83;100.00;99093.75;10417507;28;20441;-70
2024/01/02 08:46:56;;;;;;;23.88;7.50;;;;;;;10.90;100.00;99089.00;10418041;28;20084;-69
2024/01/02 08:51:57;;;;;;;27.35;8.50;;;;;;;10.91;100.00;99084.41;10416325;28;20079;-69
2024/01/02 08:56:57;;;;;;;32.08;9.85;;;;;;;10.90;100.00;99091.72;10430632;28;20357;-69
2024/01/02 09:01:58;;;;;;;26.58;9.70;;;;;;;10.99;100.00;99078.59;10414664;28;20073;-70
2024/01/02 09:06:58;;;;;;;33.88;9.98;;;;;;;11.04;100.00;99083.25;10415780;28;20033;-69
2024/01/02 09:11:59;;;;;;;28.73;11.98;;;;;;;11.11;100.00;99076.63;10415163;28;20057;-69
2024/01/02 09:16:59;;;;;;;41.83;11.90;;;;;;;11.15;100.00;99085.91;10415761;28;20068;-70
2024/01/02 09:22:00;;;;;;;43.40;12.10;;;;;;;11.29;100.00;99089.09;10421014;28;20091;-70
2024/01/02 09:27:01;;;;;;;27.80;10.35;;;;;;;11.47;100.00;99082.63;10420370;28;20137;-69
2024/01/02 09:32:03;;;;;;;33.97;12.30;;;;;;;11.47;100.00;99069.06;10432901;28;20041;-70
2024/01/02 09:37:06;;;;;;;25.20;6.13;;;;;;;11.52;100.00;99065.59;10419016;28;20042;-69
2024/01/02 09:42:12;;;;;;;29.58;9.32;;;;;;;11.66;100.00;99063.38;10416473;28;20457;-69
2024/01/02 09:47:26;;;;;;;12.15;5.53;;;;;;;11.76;100.00;99071.66;10416390;28;20117;-69
2024/01/02 09:52:33;;;;;;;19.92;7.97;;;;;;;11.73;100.00;99072.97;10413163;28;20041;-69
2024/01/02 09:57:59;;;;;;;15.77;5.28;;;;;;;11.72;100.00;99054.25;10413325;28;20376;-69
2024/01/02 10:03:19;;;;;;;20.88;6.28;;;;;;;11.76;100.00;99067.03;10401399;28;20044;-69
2024/01/02 10:08:33;;;;;;;22.48;5.10;;;;;;;11.71;100.00;99064.28;10411468;28;20023;-69
2024/01/02 10:13:43;;;;;;;11.35;5.10;;;;;;;11.76;100.00;99077.88;10411485;28;20055;-69
2024/01/02 10:19:29;;;;;;;22.42;6.20;;;;;;;11.79;100.00;99055.69;10427212;28;20104;-69
2024/01/02 10:24:52;;;;;;;19.50;4.28;;;;;;;11.74;100.00;99047.50;10381221;28;20061;-69
2024/01/02 10:30:03;;;;;;;9.68;4.00;;;;;;;11.81;100.00;99031.88;10426894;28;20037;-69
2024/01/02 10:35:23;;;;;;;18.33;4.72;;;;;;;11.76;100.00;99034.50;10411452;28;20035;-69
2024/01/02 10:40:23;;;;;;;10.43;3.70;;;;;;;11.78;100.00;99020.72;10412563;28;20105;-69
2024/01/02 10:45:29;;;;;;;11.60;4.18;;;;;;;11.76;100.00;99012.81;10435543;28;20428;-69
2024/01/02 10:50:36;;;;;;;6.47;3.03;;;;;;;11.78;100.00;98999.81;10419550;28;20021;-69
2024/01/02 10:55:43;;;;;;;;;;;;;;;11.73;100.00;99001.66;10418642;28;20375;-68
2024/01/02 11:01:08;;;;;;;0.40;0.40;;;;;;;11.62;100.00;98985.25;10439468;28;19972;-67
2024/01/02 11:06:22;;;;;;;0.55;0.55;;;;;;;11.55;100.00;98964.81;10425482;28;20361;-68
2024/01/02 11:11:22;;;;;;;0.40;0.40;;;;;;;11.53;100.00;98959.66;10421749;28;20026;-68
2024/01/02 11:16:22;;;;;;;0.38;0.38;;;;;;;11.56;100.00;98936.66;10418889;28;20048;-67
2024/01/02 11:21:39;;;;;;;4.95;2.58;;;;;;;11.53;100.00;98937.97;10416910;28;20130;-68
2024/01/02 11:26:40;;;;;;;;;;;;;;;11.53;100.00;98931.72;10421180;28;20041;-69
2024/01/02 11:31:41;;;;;;;0.77;0.77;;;;;;;11.48;100.00;98908.06;10418626;28;19957;-68
2024/01/02 11:36:59;;;;;;;0.38;0.38;;;;;;;11.50;100.00;98905.94;10417812;28;20034;-68
2024/01/02 11:42:21;;;;;;;0.60;0.60;;;;;;;11.45;100.00;98896.91;10417542;28;20030;-68
2024/01/02 11:47:42;;;;;;;0.40;0.40;;;;;;;11.40;100.00;98890.38;10418560;28;20021;-68
2024/01/02 11:53:00;;;;;;;1.63;1.52;;;;;;;11.42;100.00;98876.56;10415984;28;20025;-68
2024/01/02 11:58:36;;;;;;;0.30;0.30;;;;;;;11.39;100.00;98850.81;10416564;28;20360;-68
2024/01/02 12:03:43;;;;;;;0.50;0.50;;;;;;;11.29;100.00;98834.41;10403190;28;20040;-67
2024/01/02 12:08:47;;;;;;;0.50;0.50;;;;;;;11.20;100.00;98819.69;10415737;28;20072;-67
2024/01/02 12:14:10;;;;;;;0.40;0.40;;;;;;;11.24;100.00;98803.75;10416509;28;20095;-68
2024/01/02 12:19:10;;;;;;;0.40;0.40;;;;;;;11.22;100.00;98782.31;10416315;28;20029;-68
2024/01/02 12:24:14;;;;;;;0.40;0.40;;;;;;;11.21;100.00;98756.28;10414092;28;20041;-67
2024/01/02 12:29:24;;;;;;;0.50;0.50;;;;;;;11.14;100.00;98729.41;10430111;28;20358;-69
2024/01/02 12:34:28;;;;;;;0.30;0.30;;;;;;;11.11;100.00;98723.69;10415426;28;20112;-68
2024/01/02 12:39:32;;;;;;;0.38;0.38;;;;;;;11.16;100.00;98702.84;10414131;28;20017;-68
2024/01/02 12:44:32;;;;;;;0.40;0.40;;;;;;;10.99;100.00;98672.34;10430130;28;20025;-68
2024/01/02 12:49:37;;;;;;;0.40;0.40;;;;;;;10.98;100.00;98664.50;10414508;28;20037;-67
2024/01/02 12:54:41;;;;;;;0.68;0.68;;;;;;;10.97;100.00;98642.00;10396566;28;20030;-67
2024/01/02 12:59:43;;;;;;;0.52;0.52;;;;;;;10.96;100.00;98626.00;10413976;28;20415;-68
2024/01/02 13:04:43;;;;;;;0.50;0.50;;;;;;;10.92;100.00;98621.09;10413317;28;20373;-68
2024/01/02 13:09:44;;;;;;;0.40;0.40;;;;;;;10.87;100.00;98604.81;10412811;28;20035;-68
2024/01/02 13:14:45;;;;;;;0.50;0.50;;;;;;;10.87;100.00;98585.84;10414992;28;20052;-68
2024/01/02 13:19:45;;;;;;;0.35;0.35;;;;;;;10.86;100.00;98565.28;10429035;28;20120;-68
2024/01/02 13:24:47;;;;;;;0.70;0.70;;;;;;;10.91;100.00;98554.50;10414146;28;20041;-68
2024/01/02 13:29:47;;;;;;;0.32;0.32;;;;;;;10.92;100.00;98558.84;10412709;28;20036;-68
2024/01/02 13:34:48;;;;;;;0.50;0.50;;;;;;;10.89;100.00;98534.97;10412622;28;20036;-67
2024/01/02 13:39:48;;;;;;;1.48;1.48;;;;;;;10.91;100.00;98519.28;10413422;28;20127;-68
2024/01/02 13:44:48;;;;;;;0.57;0.57;;;;;;;10.97;100.00;98497.66;10430781;28;20038;-69
2024/01/02 13:49:50;;;;;;;0.40;0.40;;;;;;;10.98;100.00;98497.41;10414224;28;20119;-68
2024/01/02 13:54:52;;;;;;;0.40;0.40;;;;;;;11.01;100.00;98487.94;10412226;28;20061;-68
2024/01/02 13:59:52;;;;;;;0.50;0.50;;;;;;;11.00;100.00;98465.47;10412737;28;20025;-68
2024/01/02 14:04:58;;;;;;;0.60;0.60;;;;;;;11.09;100.00;98457.66;10426710;28;20040;-69
2024/01/02 14:10:00;;;;;;;0.70;0.70;;;;;;;11.12;100.00;98452.53;10412287;28;20034;-68
2024/01/02 14:15:17;;;;;;;0.40;0.40;;;;;;;11.22;100.00;98435.53;10426759;28;20372;-68
2024/01/02 14:20:18;;;;;;;0.75;0.75;;;;;;;11.14;100.00;98419.78;10426515;28;20112;-68
2024/01/02 14:25:19;;;;;;;0.55;0.55;;;;;;;11.26;100.00;98409.53;10427279;28;20476;-68
2024/01/02 14:30:23;;;;;;;1.80;1.70;;;;;;;11.26;100.00;98379.75;10412078;28;20352;-70
2024/01/02 14:35:25;;;;;;;0.50;0.50;;;;;;;11.25;100.00;98383.53;10425882;28;20080;-68
2024/01/02 14:40:32;;;;;;;0.50;0.50;;;;;;;11.17;100.00;98357.78;10393718;28;20028;-68
2024/01/02 14:45:54;;;;;;;0.75;0.75;;;;;;;11.17;100.00;98352.38;10427925;28;20091;-68
2024/01/02 14:51:11;;;;;;;0.70;0.70;;;;;;;11.21;100.00;98317.44;10411382;28;20025;-69
2024/01/02 14:56:26;;;;;;;0.47;0.47;;;;;;;11.18;100.00;98297.09;10412129;28;20034;-69
2024/01/02 15:01:39;;;;;;;0.43;0.43;;;;;;;11.19;100.00;98278.94;10411160;28;20110;-68
2024/01/02 15:06:40;;;;;;;0.50;0.50;;;;;;;11.09;100.00;98263.47;10394658;28;20042;-67
2024/01/02 15:11:54;;;;;;;0.57;0.57;;;;;;;11.08;100.00;98236.69;10392636;28;20042;-69
2024/01/02 15:17:01;;;;;;;0.50;0.50;;;;;;;11.08;100.00;98242.09;10410497;28;20123;-68
2024/01/02 15:22:29;;;;;;;0.40;0.40;;;;;;;11.07;100.00;98210.66;10411303;28;20034;-68
2024/01/02 15:27:36;;;;;;;0.40;0.40;;;;;;;11.09;100.00;98208.50;10424754;28;20053;-68
2024/01/02 15:32:39;;;;;;;0.60;0.60;;;;;;;11.07;100.00;98202.53;10419861;28;20033;-69
2024/01/02 15:37:58;;;;;;;0.40;0.40;;;;;;;11.05;100.00;98197.41;10417937;28;20029;-68
2024/01/02 15:43:06;;;;;;;1.00;1.00;;;;;;;10.96;100.00;98184.66;10417581;28;20029;-69
2024/01/02 15:48:09;;;;;;;0.60;0.60;;;;;;;10.87;100.00;98155.38;10415641;28;20025;-69
2024/01/02 15:53:25;;;;;;;1.77;1.67;;;;;;;10.84;100.00;98166.72;10416475;28;20087;-69
2024/01/02 15:58:26;;;;;;;2.65;2.45;;;;;;;10.87;100.00;98154.56;10418343;28;20115;-68
2024/01/02 16:04:00;;;;;;;0.50;0.50;;;;;;;10.87;100.00;98122.88;10417121;28;20026;-69
2024/01/02 16:09:34;;;;;;;0.43;0.43;;;;;;;10.98;100.00;98112.09;10420550;28;20029;-69
2024/01/02 16:14:41;;;;;;;0.45;0.45;;;;;;;10.93;100.00;98089.31;10417570;28;20121;-69
2024/01/02 16:19:53;;;;;;;0.52;0.52;;;;;;;11.02;100.00;98054.41;10417059;28;20033;-69
2024/01/02 16:25:01;;;;;;;0.40;0.40;;;;;;;11.03;100.00;98074.16;10419302;28;20076;-69
2024/01/02 16:30:20;;;;;;;0.60;0.60;;;;;;;11.07;100.00;98061.72;10419958;28;20431;-69
2024/01/02 16:35:33;;;;;;;0.40;0.40;;;;;;;11.14;100.00;98076.63;10414645;28;20035;-70
2024/01/02 16:41:01;;;;;;;0.40;0.40;;;;;;;11.14;100.00;98062.28;10415050;28;20380;-70
2024/01/02 16:46:02;;;;;;;0.40;0.40;;;;;;;11.13;100.00;98047.09;10415455;28;20025;-69
2024/01/02 16:51:03;;;;;;;0.50;0.50;;;;;;;11.04;100.00;98041.41;10413692;28;20360;-68
2024/01/02 16:56:06;;;;;;;1.60;1.60;;;;;;;11.08;100.00;98068.78;10415441;28;20037;-69
2024/01/02 17:01:06;;;;;;;0.40;0.40;;;;;;;11.18;100.00;98028.13;10429517;28;20033;-69
2024/01/02 17:06:09;;;;;;;0.60;0.60;;;;;;;11.14;100.00;98030.59;10412785;28;20095;-69
2024/01/02 17:11:09;;;;;;;0.50;0.50;;;;;;;11.22;100.00;98029.22;10413872;28;20029;-69
2024/01/02 17:16:09;;;;;;;0.50;0.50;;;;;;;11.16;100.00;98051.97;10411820;28;20026;-68
2024/01/02 17:21:10;;;;;;;0.40;0.40;;;;;;;11.15;100.00;98082.84;10413064;28;20045;-69
2024/01/02 17:26:10;;;;;;;1.65;1.40;;;;;;;10.92;100.00;98049.81;10413204;28;20045;-70
2024/01/02 17:31:12;;;;;;;14.90;5.20;;;;;;;10.61;100.00;98042.72;10413818;28;20037;-69
2024/01/02 17:36:12;;;;;;;18.10;6.15;;;;;;;10.41;100.00;98017.25;10414425;28;20029;-69
2024/01/02 17:41:13;;;;;;;12.73;5.82;;;;;;;10.43;100.00;98025.91;10411822;28;20037;-69
2024/01/02 17:46:13;;;;;;;26.23;6.22;;;;;;;10.30;100.00;98034.50;10414122;28;20037;-69
2024/01/02 17:51:14;;;;;;;18.75;6.90;;;;;;;9.95;100.00;98008.94;10412599;28;20433;-69
2024/01/02 17:56:17;;;;;;;28.55;7.63;;;;;;;9.69;100.00;98020.72;10414855;28;20044;-69
2024/01/02 18:01:22;;;;;;;14.18;6.75;;;;;;;9.80;100.00;98044.03;10417723;28;20033;-70
2024/01/02 18:06:46;;;;;;;12.60;5.60;;;;;;;10.06;100.00;98030.63;10415449;28;20033;-69
2024/01/02 18:12:26;;;;;;;16.50;5.78;;;;;;;10.33;100.00;98008.84;10427707;28;20434;-69
2024/01/02 18:18:00;;;;;;;19.55;7.65;;;;;;;10.42;100.00;98007.22;10404358;28;20135;-69
2024/01/02 18:23:01;;;;;;;20.65;8.20;;;;;;;10.59;100.00;97998.88;10414058;28;20481;-69
2024/01/02 18:28:04;;;;;;;31.00;8.00;;;;;;;10.62;100.00;97985.59;10412214;28;20033;-69
2024/01/02 18:33:12;;;;;;;21.73;7.28;;;;;;;10.64;100.00;98021.34;10411736;28;20044;-70
2024/01/02 18:38:27;;;;;;;21.27;6.97;;;;;;;10.70;100.00;98009.44;10425875;28;20369;-69
2024/01/02 18:43:35;;;;;;;38.28;7.97;;;;;;;10.71;100.00;97977.78;10411842;28;20065;-69
2024/01/02 18:48:40;;;;;;;24.80;7.35;;;;;;;10.81;100.00;97988.59;10426964;28;20025;-69
2024/01/02 18:53:49;;;;;;;32.15;9.50;;;;;;;10.84;100.00;97969.09;10409791;28;20029;-69
2024/01/02 18:58:50;;;;;;;9.20;5.35;;;;;;;10.89;100.00;97988.06;10410176;28;20110;-70
2024/01/02 19:04:04;;;;;;;23.20;6.07;;;;;;;10.82;100.00;97984.03;10414603;28;20449;-69
2024/01/02 19:09:04;;;;;;;29.48;7.50;;;;;;;10.84;100.00;97963.69;10420696;28;20134;-69
2024/01/02 19:14:11;;;;;;;21.63;9.27;;;;;;;10.82;100.00;97967.78;10417957;28;20029;-70
2024/01/02 19:19:11;;;;;;;9.77;6.00;;;;;;;10.89;100.00;97996.19;10419354;28;20049;-70
2024/01/02 19:24:13;;;;;;;18.23;7.97;;;;;;;10.85;100.00;97978.88;10418209;28;20045;-70
2024/01/02 19:29:14;;;;;;;19.15;6.47;;;;;;;10.90;100.00;97997.00;10419746;28;20042;-70
2024/01/02 19:34:15;;;;;;;20.25;6.05;;;;;;;10.87;100.00;97976.69;10419037;28;20079;-70
2024/01/02 19:39:20;;;;;;;25.38;7.88;;;;;;;10.78;100.00;97940.41;10417341;28;20041;-70
2024/01/02 19:44:23;;;;;;;19.92;6.95;;;;;;;10.84;100.00;97990.75;10417760;28;20136;-70
2024/01/02 19:49:24;;;;;;;23.27;10.02;;;;;;;10.79;100.00;98006.22;10417304;28;20461;-75
2024/01/02 19:54:25;;;;;;;25.05;7.95;;;;;;;10.80;100.00;98030.28;10432667;28;20032;-74
2024/01/02 19:59:25;;;;;;;26.98;9.80;;;;;;;10.80;100.00;98030.28;10415865;28;20156;-73
2024/01/02 20:04:27;;;;;;;42.75;8.93;;;;;;;10.85;100.00;98033.03;10417661;28;20083;-72
2024/01/02 20:09:37;;;;;;;22.63;9.98;;;;;;;10.77;100.00;98044.38;10415139;28;20044;-67
2024/01/02 20:14:45;;;;;;;18.88;7.78;;;;;;;10.79;100.00;98069.28;10416051;28;20433;-69
2024/01/02 20:19:46;;;;;;;20.55;8.52;;;;;;;10.70;100.00;98079.81;10416117;28;20104;-70
2024/01/02 20:24:47;;;;;;;33.28;7.28;;;;;;;10.58;100.00;98100.06;10415023;28;20041;-71
2024/01/02 20:29:52;;;;;;;29.30;5.70;;;;;;;10.41;100.00;98084.88;10416308;28;20033;-71
2024/01/02 20:34:54;;;;;;;17.58;6.93;;;;;;;10.39;100.00;98114.06;10417986;28;20107;-71
2024/01/02 20:39:56;;;;;;;12.07;5.80;;;;;;;10.42;100.00;98094.59;10415118;28;20029;-70
2024/01/02 20:44:58;;;;;;;17.25;4.43;;;;;;;10.39;100.00;98102.44;10416149;28;20029;-70
2024/01/02 20:49:58;;;;;;;13.80;4.72;;;;;;;10.27;100.00;98118.88;10414051;28;20025;-70
2024/01/02 20:54:59;;;;;;;24.60;5.80;;;;;;;10.37;100.00;98137.06;10415703;28;20032;-70
2024/01/02 20:59:59;;;;;;;27.17;8.10;;;;;;;10.31;100.00;98138.94;10415181;28;20113;-70
2024/01/02 21:05:00;;;;;;;16.02;7.90;;;;;;;10.39;100.00;98159.25;10414640;28;20116;-70
2024/01/02 21:10:01;;;;;;;26.77;8.57;;;;;;;10.29;100.00;98160.00;10415314;28;20040;-71
2024/01/02 21:15:12;;;;;;;30.63;12.23;;;;;;;9.85;100.00;98198.09;10397807;28;20144;-69
2024/01/02 21:20:23;;;;;;;32.55;10.07;;;;;;;9.64;100.00;98197.13;10428517;28;20545;-69
2024/01/02 21:25:24;;;;;;;25.60;5.38;;;;;;;9.53;100.00;98209.72;10429370;28;20105;-69
2024/01/02 21:30:25;;;;;;;20.30;4.75;;;;;;;9.46;100.00;98190.22;10429474;28;20034;-70
2024/01/02 21:35:25;;;;;;;19.70;4.65;;;;;;;9.43;100.00;98244.75;10413987;28;20057;-69
2024/01/02 21:40:32;;;;;;;7.75;3.95;;;;;;;9.35;100.00;98234.44;10411715;28;20036;-69
2024/01/02 21:45:38;;;;;;;;;;;;;;;9.41;100.00;98255.03;10414687;28;20138;-69
2024/01/02 21:50:50;;;;;;;16.98;4.45;;;;;;;9.32;100.00;98261.94;10416763;28;20329;-70
2024/01/02 21:55:51;;;;;;;13.82;6.10;;;;;;;9.32;100.00;98272.75;10423422;28;20472;-70
2024/01/02 22:01:09;;;;;;;21.15;7.15;;;;;;;9.29;100.00;98292.97;10415604;28;20150;-70
2024/01/02 22:06:20;;;;;;;12.23;3.95;;;;;;;9.30;100.00;98293.78;10413091;28;20025;-70
2024/01/02 22:11:36;;;;;;;5.30;2.05;;;;;;;9.26;100.00;98312.38;10410863;28;20051;-70
2024/01/02 22:16:36;;;;;;;13.45;4.53;;;;;;;9.16;100.00;98312.25;10427367;28;20018;-70
2024/01/02 22:21:55;;;;;;;12.23;5.47;;;;;;;9.04;100.00;98306.16;10410071;28;20551;-69
2024/01/02 22:26:55;;;;;;;12.35;3.42;;;;;;;8.92;100.00;98318.97;10411416;28;20191;-67
2024/01/02 22:31:55;;;;;;;17.48;4.93;;;;;;;8.96;100.00;98342.50;10394263;28;20519;-68
2024/01/02 22:36:56;;;;;;;18.58;6.03;;;;;;;9.04;100.00;98349.34;10393584;28;20348;-69
2024/01/02 22:41:56;;;;;;;50.40;7.50;;;;;;;9.06;100.00;98371.50;10415863;28;20029;-69
2024/01/02 22:46:57;;;;;;;37.15;9.05;;;;;;;9.16;100.00;98384.34;10411378;28;20116;-68
2024/01/02 22:51:57;;;;;;;18.25;5.80;;;;;;;9.16;100.00;98378.94;10410532;28;20037;-68
2024/01/02 22:56:57;;;;;;;20.77;6.95;;;;;;;9.16;100.00;98377.06;10393695;28;20136;-68
2024/01/02 23:01:58;;;;;;;39.40;8.15;;;;;;;9.11;100.00;98412.06;10412228;28;20390;-68
2024/01/02 23:07:07;;;;;;;0.50;0.50;;;;;;;9.02;100.00;98411.69;10411123;28;20042;-68
2024/01/02 23:12:08;;;;;;;0.50;0.50;;;;;;;8.96;100.00;98434.25;10410634;28;20028;-68
2024/01/02 23:17:44;;;;;;;0.70;0.70;;;;;;;8.95;100.00;98431.81;10410945;28;20036;-69